createdAt,value
2019-02-05T00:01:09.837Z,51.52
2019-02-05T00:03:58.076Z,52.04
2019-02-05T00:06:45.398Z,53.39
2019-02-05T00:09:32.925Z,54.62
2019-02-05T00:12:20.657Z,55.16
2019-02-05T00:15:08.293Z,55.64
2019-02-05T00:17:55.507Z,55.79
2019-02-05T00:20:43.510Z,55.40
2019-02-05T00:23:30.657Z,55.70
2019-02-05T00:26:18.493Z,54.82
2019-02-05T00:29:05.916Z,54.47
2019-02-05T00:31:54.056Z,53.69
2019-02-05T00:34:41.070Z,52.82
2019-02-05T00:37:28.700Z,52.10
2019-02-05T00:40:16.739Z,52.87
2019-02-05T00:43:04.063Z,52.62
2019-02-05T00:45:51.597Z,52.73
2019-02-05T00:48:39.009Z,54.05
2019-02-05T00:51:26.638Z,53.05
2019-02-05T00:54:18.773Z,52.20
2019-02-05T00:57:06.392Z,51.81
2019-02-05T00:59:53.644Z,52.05
2019-02-05T01:02:41.045Z,51.70
2019-02-05T01:05:28.572Z,51.95
2019-02-05T01:08:15.998Z,52.80
2019-02-05T01:11:03.635Z,53.00
2019-02-05T01:13:51.149Z,52.96
2019-02-05T01:16:39.086Z,53.02
2019-02-05T01:19:26.820Z,52.79
2019-02-05T01:22:13.731Z,53.31
2019-02-05T01:25:00.950Z,54.47
2019-02-05T01:27:48.770Z,54.87
2019-02-05T01:30:36.220Z,54.81
2019-02-05T01:33:23.838Z,54.53
2019-02-05T01:36:10.973Z,54.64
2019-02-05T01:38:58.374Z,54.58
2019-02-05T01:41:46.210Z,54.81
2019-02-05T01:44:33.637Z,54.99
2019-02-05T01:47:21.263Z,55.71
2019-02-05T01:50:11.213Z,56.34
2019-02-05T01:52:58.572Z,56.12
2019-02-05T01:55:46.401Z,56.38
2019-02-05T01:58:33.622Z,55.38
2019-02-05T02:01:21.559Z,54.26
2019-02-05T02:04:08.986Z,54.06
2019-02-05T02:06:56.203Z,53.85
2019-02-05T02:09:43.530Z,56.27
2019-02-05T02:12:30.749Z,55.50
2019-02-05T02:15:18.757Z,54.98
2019-02-05T02:18:06.473Z,55.68
2019-02-05T02:20:53.628Z,54.82
2019-02-05T02:23:41.155Z,54.44
2019-02-05T02:26:28.889Z,54.76
2019-02-05T02:29:16.106Z,54.95
2019-02-05T02:32:03.335Z,55.03
2019-02-05T02:34:50.651Z,54.84
2019-02-05T02:37:38.174Z,53.97
2019-02-05T02:40:25.902Z,54.08
2019-02-05T02:43:13.335Z,54.74
2019-02-05T02:46:01.265Z,56.34
2019-02-05T02:48:48.483Z,56.68
2019-02-05T02:51:36.317Z,57.52
2019-02-05T02:54:23.541Z,56.58
2019-02-05T02:57:11.575Z,56.17
2019-02-05T02:59:59.313Z,56.05
2019-02-05T03:02:47.348Z,56.15
2019-02-05T03:05:34.973Z,55.92
2019-02-05T03:08:22.705Z,56.37
2019-02-05T03:11:09.823Z,56.77
2019-02-05T03:13:56.732Z,56.20
2019-02-05T03:16:44.360Z,56.39
2019-02-05T03:19:31.686Z,56.40
2019-02-05T03:22:18.696Z,56.77
2019-02-05T03:25:09.713Z,56.08
2019-02-05T03:27:57.339Z,57.02
2019-02-05T03:30:44.668Z,57.90
2019-02-05T03:33:32.191Z,57.60
2019-02-05T03:36:19.402Z,58.38
2019-02-05T03:39:07.644Z,58.90
2019-02-05T03:41:56.196Z,58.87
2019-02-05T03:44:43.649Z,58.10
2019-02-05T03:47:31.253Z,57.80
2019-02-05T03:50:18.774Z,57.92
2019-02-05T03:53:30.263Z,57.72
2019-02-05T03:56:54.345Z,57.68
2019-02-05T03:59:56.928Z,57.43
2019-02-05T04:02:50.299Z,57.54
2019-02-05T04:06:01.775Z,57.43
2019-02-05T04:09:05.490Z,57.31
2019-02-05T04:12:30.897Z,57.91
2019-02-05T04:15:33.682Z,58.33
2019-02-05T04:18:33.494Z,58.76
2019-02-05T04:21:26.548Z,57.80
2019-02-05T04:24:36.408Z,57.79
2019-02-05T04:27:45.021Z,57.12
2019-02-05T04:30:40.381Z,57.44
2019-02-05T04:33:39.779Z,57.62
2019-02-05T04:36:30.239Z,57.03
2019-02-05T04:39:39.975Z,57.05
2019-02-05T04:42:42.664Z,56.62
2019-02-05T04:45:42.170Z,57.17
2019-02-05T04:48:53.971Z,57.00
2019-02-05T04:51:56.237Z,56.02
2019-02-05T04:54:55.638Z,55.60
2019-02-05T04:58:01.781Z,55.23
2019-02-05T05:01:07.143Z,54.92
2019-02-05T05:04:20.277Z,54.94
2019-02-05T05:07:10.562Z,55.03
2019-02-05T05:09:58.883Z,55.15
2019-02-05T05:12:45.926Z,55.75
2019-02-05T05:15:33.348Z,55.49
2019-02-05T05:18:20.675Z,55.35
2019-02-05T05:21:07.922Z,55.37
2019-02-05T05:23:56.745Z,55.74
2019-02-05T05:26:44.930Z,55.75
2019-02-05T05:29:33.193Z,55.95
2019-02-05T05:32:21.065Z,55.48
2019-02-05T05:35:10.026Z,56.00
2019-02-05T05:37:57.221Z,56.96
2019-02-05T05:40:44.994Z,56.72
2019-02-05T05:43:32.402Z,56.81
2019-02-05T05:46:19.516Z,56.50
2019-02-05T05:49:06.939Z,56.81
2019-02-05T05:51:54.778Z,57.32
2019-02-05T05:54:43.323Z,56.46
2019-02-05T05:57:30.652Z,56.43
2019-02-05T06:00:19.938Z,56.94
2019-02-05T06:03:07.340Z,58.79
2019-02-05T06:05:54.868Z,59.00
2019-02-05T06:08:42.695Z,58.49
2019-02-05T06:11:30.017Z,58.43
2019-02-05T06:14:17.676Z,59.48
2019-02-05T06:17:04.970Z,59.95
2019-02-05T06:19:52.521Z,59.62
2019-02-05T06:22:40.552Z,58.95
2019-02-05T06:25:28.274Z,58.96
2019-02-05T06:28:15.692Z,58.87
2019-02-05T06:31:03.214Z,60.04
2019-02-05T06:33:51.047Z,60.95
2019-02-05T06:36:38.478Z,60.16
2019-02-05T06:39:25.794Z,59.39
2019-02-05T06:42:13.012Z,59.30
2019-02-05T06:44:59.932Z,59.41
2019-02-05T06:47:47.447Z,58.87
2019-02-05T06:50:35.091Z,59.98
2019-02-05T06:53:22.563Z,60.78
2019-02-05T06:56:09.622Z,61.33
2019-02-05T06:58:57.659Z,61.37
2019-02-05T07:01:45.394Z,62.37
2019-02-05T07:04:33.327Z,62.59
2019-02-05T07:07:20.648Z,62.40
2019-02-05T07:10:24.906Z,63.07
2019-02-05T07:13:13.823Z,62.56
2019-02-05T07:16:02.483Z,63.85
2019-02-05T07:18:50.106Z,65.24
2019-02-05T07:21:37.632Z,63.39
2019-02-05T07:24:25.060Z,64.10
2019-02-05T07:27:12.587Z,64.36
2019-02-05T07:30:00.421Z,63.83
2019-02-05T07:32:47.947Z,64.17
2019-02-05T07:35:35.168Z,63.20
2019-02-05T07:38:22.791Z,64.49
2019-02-05T07:41:10.214Z,63.60
2019-02-05T07:43:57.535Z,63.01
2019-02-05T07:46:45.268Z,62.20
2019-02-05T07:49:32.282Z,62.70
2019-02-05T07:52:19.916Z,62.96
2019-02-05T07:55:10.189Z,62.97
2019-02-05T07:57:57.936Z,61.93
2019-02-05T08:00:45.568Z,62.57
2019-02-05T08:03:32.987Z,62.45
2019-02-05T08:06:20.626Z,61.56
2019-02-05T08:09:09.370Z,61.41
2019-02-05T08:11:57.104Z,61.52
2019-02-05T08:14:44.743Z,61.66
2019-02-05T08:17:31.848Z,63.19
2019-02-05T08:20:20.399Z,62.64
2019-02-05T08:23:08.034Z,61.69
2019-02-05T08:25:55.658Z,62.91
2019-02-05T08:28:42.989Z,62.15
2019-02-05T08:31:30.094Z,63.33
2019-02-05T08:34:17.517Z,63.07
2019-02-05T08:37:05.146Z,62.80
2019-02-05T08:39:53.183Z,62.56
2019-02-05T08:42:41.123Z,63.44
2019-02-05T08:45:37.609Z,63.86
2019-02-05T08:48:24.775Z,63.50
2019-02-05T08:51:12.095Z,62.72
2019-02-05T08:53:59.730Z,63.49
2019-02-05T08:56:47.272Z,62.91
2019-02-05T08:59:34.969Z,62.41
2019-02-05T09:02:22.306Z,62.73
2019-02-05T09:05:10.114Z,62.62
2019-02-05T09:07:57.974Z,62.61
2019-02-05T09:10:45.498Z,62.35
2019-02-05T09:13:33.435Z,62.48
2019-02-05T09:16:20.861Z,62.87
2019-02-05T09:19:08.486Z,62.04
2019-02-05T09:21:56.114Z,61.65
2019-02-05T09:24:43.552Z,60.88
2019-02-05T09:27:31.373Z,60.47
2019-02-05T09:30:20.943Z,61.51
2019-02-05T09:33:11.907Z,61.17
2019-02-05T09:35:59.087Z,61.03
2019-02-05T09:38:46.804Z,60.73
2019-02-05T09:41:34.433Z,60.07
2019-02-05T09:44:22.268Z,59.42
2019-02-05T09:47:09.402Z,59.01
2019-02-05T09:49:57.333Z,59.32
2019-02-05T09:52:44.436Z,59.40
2019-02-05T09:55:31.765Z,60.27
2019-02-05T09:58:19.080Z,60.28
2019-02-05T10:01:07.264Z,60.49
2019-02-05T10:03:54.438Z,60.30
2019-02-05T10:06:42.278Z,60.42
2019-02-05T10:09:29.701Z,60.07
2019-02-05T10:12:16.811Z,60.16
2019-02-05T10:15:06.907Z,60.98
2019-02-05T10:17:54.217Z,60.48
2019-02-05T10:20:42.362Z,59.81
2019-02-05T10:23:29.583Z,61.41
2019-02-05T10:26:17.211Z,62.01
2019-02-05T10:29:04.939Z,61.69
2019-02-05T10:31:52.574Z,60.94
2019-02-05T10:34:40.199Z,60.79
2019-02-05T10:37:27.621Z,60.93
2019-02-05T10:40:16.781Z,61.02
2019-02-05T10:43:04.980Z,60.95
2019-02-05T10:45:52.353Z,62.20
2019-02-05T10:48:39.781Z,62.99
2019-02-05T10:51:27.507Z,61.85
2019-02-05T10:54:14.933Z,61.50
2019-02-05T10:57:02.263Z,61.14
2019-02-05T10:59:49.573Z,61.93
2019-02-05T11:02:37.306Z,61.75
2019-02-05T11:05:26.680Z,61.39
2019-02-05T11:08:13.896Z,61.06
2019-02-05T11:11:01.505Z,61.37
2019-02-05T11:13:49.252Z,61.38
2019-02-05T11:16:36.885Z,61.62
2019-02-05T11:19:23.795Z,60.87
2019-02-05T11:22:11.217Z,60.36
2019-02-05T11:24:58.949Z,60.14
2019-02-05T11:27:46.991Z,60.83
2019-02-05T11:30:43.019Z,60.75
2019-02-05T11:33:30.849Z,60.91
2019-02-05T11:36:18.577Z,61.28
2019-02-05T11:39:09.182Z,61.02
2019-02-05T11:41:56.601Z,61.49
2019-02-05T11:44:45.252Z,61.78
2019-02-05T11:47:32.269Z,61.03
2019-02-05T11:50:20.101Z,60.83
2019-02-05T11:53:07.523Z,60.80
2019-02-05T11:55:54.956Z,60.62
2019-02-05T11:58:42.580Z,61.17
2019-02-05T12:01:38.515Z,60.64
2019-02-05T12:04:19.882Z,60.11
2019-02-05T12:07:08.341Z,59.90
2019-02-05T12:09:55.757Z,59.55
2019-02-05T12:12:43.593Z,59.07
2019-02-05T12:15:30.806Z,58.98
2019-02-05T12:18:18.399Z,59.18
2019-02-05T12:21:05.759Z,59.41
2019-02-05T12:23:53.088Z,59.88
2019-02-05T12:26:40.403Z,59.31
2019-02-05T12:29:27.442Z,59.37
2019-02-05T12:32:15.251Z,58.94
2019-02-05T12:35:02.878Z,58.92
2019-02-05T12:37:50.307Z,58.78
2019-02-05T12:40:38.242Z,58.12
2019-02-05T12:43:25.766Z,59.28
2019-02-05T12:46:13.600Z,59.80
2019-02-05T12:49:00.822Z,59.48
2019-02-05T12:51:49.469Z,59.05
2019-02-05T12:54:38.528Z,58.16
2019-02-05T12:57:25.869Z,58.06
2019-02-05T13:00:16.557Z,59.35
2019-02-05T13:03:04.657Z,59.68
2019-02-05T13:05:51.988Z,60.26
2019-02-05T13:08:39.339Z,58.82
2019-02-05T13:11:27.074Z,59.73
2019-02-05T13:14:14.494Z,59.67
2019-02-05T13:17:01.922Z,58.83
2019-02-05T13:19:49.956Z,57.86
2019-02-05T13:22:37.693Z,57.52
2019-02-05T13:25:27.174Z,58.29
2019-02-05T13:28:15.722Z,57.67
2019-02-05T13:31:08.236Z,57.29
2019-02-05T13:33:53.430Z,57.04
2019-02-05T13:36:40.543Z,56.55
2019-02-05T13:39:27.645Z,55.93
2019-02-05T13:42:15.392Z,56.41
2019-02-05T13:45:03.535Z,56.02
2019-02-05T13:47:52.264Z,56.47
2019-02-05T13:50:39.710Z,56.60
2019-02-05T13:53:27.133Z,56.86
2019-02-05T13:56:14.157Z,56.28
2019-02-05T13:59:01.367Z,56.27
2019-02-05T14:01:48.909Z,56.46
2019-02-05T14:04:37.036Z,55.82
2019-02-05T14:07:24.254Z,55.40
2019-02-05T14:10:14.714Z,55.50
2019-02-05T14:13:01.763Z,55.27
2019-02-05T14:15:51.017Z,55.10
2019-02-05T14:18:37.943Z,55.32
2019-02-05T14:21:27.765Z,55.46
2019-02-05T14:24:14.956Z,55.96
2019-02-05T14:27:02.368Z,56.12
2019-02-05T14:29:50.203Z,55.89
2019-02-05T14:32:37.626Z,56.03
2019-02-05T14:35:25.362Z,56.05
2019-02-05T14:38:13.596Z,56.50
2019-02-05T14:41:00.930Z,56.24
2019-02-05T14:43:48.856Z,56.36
2019-02-05T14:46:36.076Z,56.03
2019-02-05T14:49:23.908Z,57.47
2019-02-05T14:52:11.231Z,57.58
2019-02-05T14:54:59.072Z,57.09
2019-02-05T14:57:46.487Z,57.23
2019-02-05T15:00:35.298Z,56.18
2019-02-05T15:03:23.076Z,56.09
2019-02-05T15:06:10.709Z,55.44
2019-02-05T15:08:58.543Z,55.62
2019-02-05T15:11:47.303Z,55.30
2019-02-05T15:14:35.026Z,55.31
2019-02-05T15:17:22.861Z,56.27
2019-02-05T15:20:19.704Z,56.17
2019-02-05T15:23:08.274Z,55.43
2019-02-05T15:25:55.783Z,55.27
2019-02-05T15:28:43.821Z,55.17
2019-02-05T15:31:31.247Z,55.13
2019-02-05T15:34:20.102Z,55.18
2019-02-05T15:37:07.530Z,55.18
2019-02-05T15:39:55.357Z,54.95
2019-02-05T15:42:42.679Z,54.85
2019-02-05T15:45:30.107Z,54.81
2019-02-05T15:48:17.633Z,54.88
2019-02-05T15:51:05.459Z,54.88
2019-02-05T15:53:52.990Z,55.17
2019-02-05T15:56:40.394Z,55.35
2019-02-05T15:59:28.350Z,55.67
2019-02-05T16:02:15.777Z,56.05
2019-02-05T16:05:03.097Z,56.63
2019-02-05T16:07:50.623Z,57.20
2019-02-05T16:10:38.558Z,57.41
2019-02-05T16:13:25.983Z,57.87
2019-02-05T16:16:13.407Z,58.99
2019-02-05T16:19:01.345Z,58.42
2019-02-05T16:21:49.039Z,58.89
2019-02-05T16:24:36.397Z,59.38
2019-02-05T16:27:24.142Z,59.14
2019-02-05T16:30:14.526Z,59.14
2019-02-05T16:33:02.356Z,59.76
2019-02-05T16:35:51.579Z,60.26
2019-02-05T16:38:39.046Z,60.60
2019-02-05T16:41:26.470Z,60.35
2019-02-05T16:44:14.202Z,61.01
2019-02-05T16:47:01.733Z,61.76
2019-02-05T16:49:49.048Z,61.48
2019-02-05T16:52:36.489Z,61.22
2019-02-05T16:55:23.600Z,61.99
2019-02-05T16:58:11.326Z,62.96
2019-02-05T17:01:00.652Z,61.76
2019-02-05T17:03:48.096Z,60.91
2019-02-05T17:06:35.639Z,62.92
2019-02-05T17:09:23.080Z,61.42
2019-02-05T17:12:10.908Z,60.72
2019-02-05T17:14:58.534Z,60.24
2019-02-05T17:17:47.855Z,59.90
2019-02-05T17:20:36.571Z,60.25
2019-02-05T17:23:24.178Z,60.19
2019-02-05T17:26:11.295Z,60.42
2019-02-05T17:28:58.930Z,60.06
2019-02-05T17:31:46.043Z,59.99
2019-02-05T17:34:33.491Z,60.92
2019-02-05T17:37:21.100Z,60.72
2019-02-05T17:40:11.396Z,61.72
2019-02-05T17:42:59.241Z,62.67
2019-02-05T17:45:47.053Z,61.79
2019-02-05T17:48:34.782Z,63.03
2019-02-05T17:51:23.717Z,63.48
2019-02-05T17:54:11.185Z,64.45
2019-02-05T17:56:59.043Z,64.09
2019-02-05T17:59:46.530Z,63.03
2019-02-05T18:02:36.001Z,63.36
2019-02-05T18:05:25.016Z,62.73
2019-02-05T18:08:13.976Z,63.16
2019-02-05T18:11:01.688Z,63.54
2019-02-05T18:13:48.872Z,64.34
2019-02-05T18:16:37.218Z,64.89
2019-02-05T18:19:24.441Z,65.53
2019-02-05T18:22:12.779Z,67.61
2019-02-05T18:25:00.479Z,67.20
2019-02-05T18:27:48.655Z,66.75
2019-02-05T18:30:42.425Z,67.49
2019-02-05T18:33:30.260Z,66.16
2019-02-05T18:36:22.602Z,66.16
2019-02-05T18:39:10.537Z,66.37
2019-02-05T18:41:58.061Z,66.94
2019-02-05T18:44:48.089Z,65.43
2019-02-05T18:47:34.343Z,65.62
2019-02-05T18:50:27.054Z,65.10
2019-02-05T18:53:14.925Z,65.25
2019-02-05T18:56:02.555Z,65.55
2019-02-05T18:58:50.385Z,65.22
2019-02-05T19:01:37.914Z,65.34
2019-02-05T19:04:25.621Z,64.31
2019-02-05T19:07:14.095Z,64.59
2019-02-05T19:10:01.318Z,65.44
2019-02-05T19:12:48.734Z,64.39
2019-02-05T19:15:38.180Z,64.13
2019-02-05T19:18:25.528Z,63.56
2019-02-05T19:21:12.963Z,64.20
2019-02-05T19:24:02.322Z,63.15
2019-02-05T19:26:49.643Z,63.18
2019-02-05T19:29:37.069Z,63.41
2019-02-05T19:32:25.078Z,63.30
2019-02-05T19:35:12.733Z,63.85
2019-02-05T19:38:00.160Z,63.31
2019-02-05T19:40:57.181Z,63.33
2019-02-05T19:43:37.467Z,63.98
2019-02-05T19:46:41.518Z,63.27
2019-02-05T19:49:29.722Z,63.19
2019-02-05T19:52:17.249Z,63.76
2019-02-05T19:55:07.435Z,64.55
2019-02-05T19:57:55.067Z,64.85
2019-02-05T20:00:42.489Z,64.51
2019-02-05T20:03:38.331Z,64.05
2019-02-05T20:06:19.904Z,64.23
2019-02-05T20:09:10.393Z,63.66
2019-02-05T20:11:57.590Z,64.12
2019-02-05T20:14:45.036Z,63.56
2019-02-05T20:17:32.257Z,63.79
2019-02-05T20:20:21.013Z,64.55
2019-02-05T20:23:08.747Z,63.99
2019-02-05T20:25:56.063Z,63.58
2019-02-05T20:28:43.591Z,64.58
2019-02-05T20:31:30.707Z,64.94
2019-02-05T20:34:18.254Z,64.90
2019-02-05T20:37:06.467Z,66.53
2019-02-05T20:39:53.606Z,65.71
2019-02-05T20:42:41.122Z,65.12
2019-02-05T20:45:28.424Z,65.20
2019-02-05T20:48:15.972Z,65.94
2019-02-05T20:51:03.499Z,65.47
2019-02-05T20:53:51.124Z,65.91
2019-02-05T20:56:38.550Z,64.99
2019-02-05T20:59:26.096Z,64.38
2019-02-05T21:02:13.087Z,63.80
2019-02-05T21:05:00.675Z,63.65
2019-02-05T21:07:49.387Z,64.13
2019-02-05T21:10:37.099Z,64.70
2019-02-05T21:13:25.547Z,64.58
2019-02-05T21:16:12.663Z,64.09
2019-02-05T21:19:00.398Z,64.19
2019-02-05T21:21:47.615Z,64.13
2019-02-05T21:24:34.951Z,63.89
2019-02-05T21:27:22.363Z,63.38
2019-02-05T21:30:13.558Z,62.92
2019-02-05T21:33:00.899Z,62.67
2019-02-05T21:35:48.233Z,62.65
2019-02-05T21:38:35.129Z,62.15
2019-02-05T21:41:22.575Z,61.95
2019-02-05T21:44:09.977Z,61.58
2019-02-05T21:46:57.711Z,61.29
2019-02-05T21:49:45.032Z,61.36
2019-02-05T21:52:32.250Z,61.49
2019-02-05T21:55:21.115Z,61.65
2019-02-05T21:58:08.631Z,61.51
2019-02-05T22:00:56.056Z,61.20
2019-02-05T22:03:44.048Z,60.94
2019-02-05T22:06:31.648Z,60.89
2019-02-05T22:09:18.851Z,60.56
2019-02-05T22:12:06.906Z,60.99
2019-02-05T22:14:54.100Z,63.45
2019-02-05T22:17:41.724Z,64.47
2019-02-05T22:20:30.315Z,65.00
2019-02-05T22:23:17.810Z,66.09
2019-02-05T22:26:05.422Z,65.93
2019-02-05T22:28:52.755Z,65.34
2019-02-05T22:31:40.179Z,64.65
2019-02-05T22:34:38.964Z,64.30
2019-02-05T22:37:16.767Z,63.94
2019-02-05T22:40:07.065Z,63.11
2019-02-05T22:42:55.098Z,62.71
2019-02-05T22:45:42.523Z,62.88
2019-02-05T22:48:30.150Z,62.98
2019-02-05T22:51:17.559Z,63.49
2019-02-05T22:54:05.507Z,63.70
2019-02-05T22:56:53.257Z,63.56
2019-02-05T22:59:41.897Z,63.12
2019-02-05T23:02:29.429Z,62.44
2019-02-05T23:05:46.131Z,61.46
2019-02-05T23:08:34.066Z,61.30
2019-02-05T23:11:42.890Z,61.44
2019-02-05T23:14:30.519Z,61.40
2019-02-05T23:17:18.353Z,61.28
2019-02-05T23:20:09.055Z,61.14
2019-02-05T23:22:57.278Z,60.74
2019-02-05T23:25:44.926Z,61.14
2019-02-05T23:28:32.257Z,61.04
2019-02-05T23:31:19.683Z,61.02
2019-02-05T23:34:07.309Z,60.70
2019-02-05T23:36:54.933Z,60.52
2019-02-05T23:39:42.353Z,60.53
2019-02-05T23:42:29.779Z,60.66
2019-02-05T23:45:17.918Z,60.92
2019-02-05T23:48:05.753Z,60.92
2019-02-05T23:50:53.482Z,60.77
2019-02-05T23:53:40.911Z,60.60
2019-02-05T23:56:29.088Z,60.42
2019-02-05T23:59:16.703Z,60.36
